BOX717 EDDF-LIMC
Flight info
| Callsign | BOX717 |
|---|---|
| Flight time | N/A |
| Altitude | 31000 |
| Route | ANEKI2L/18 ANEKI Y163 PABLA/N0479F330 Y163 NATOR DCT DITON DCT BASGO Z424 RIXUV |
| Aircraft | B77L/H-SDE1E2E3FGHIJ2J3J4J5M1RWXY/LB1D1 |
Departure
| Time | N/A |
|---|---|
| Airport | Frankfurt Main Airport (EDDF) |
Arrival
| Time | 2026-05-05 21:33 |
|---|---|
| Airport | Milan Malpensa International Airport (LIMC) |
| Time | Latitude | Longitude | Altitude | Speed | Heading |
|---|---|---|---|---|---|
| 2026-05-05 20:27 | 47.47286 | 8.33066 | 30927 ft | 389 kts | 182° |
| 2026-05-05 20:27 | 47.44574 | 8.33102 | 30923 ft | 397 kts | 182° |
| 2026-05-05 20:28 | 47.38885 | 8.33177 | 30923 ft | 418 kts | 182° |
| 2026-05-05 20:28 | 47.32938 | 8.33258 | 30935 ft | 437 kts | 182° |
| 2026-05-05 20:29 | 47.26743 | 8.33710 | 30937 ft | 452 kts | 178° |
| 2026-05-05 20:29 | 47.20437 | 8.34613 | 30919 ft | 455 kts | 178° |
| 2026-05-05 20:30 | 47.14162 | 8.35496 | 30922 ft | 455 kts | 178° |
| 2026-05-05 20:30 | 47.07849 | 8.36365 | 30899 ft | 455 kts | 179° |
| 2026-05-05 20:31 | 47.01561 | 8.37224 | 30934 ft | 451 kts | 179° |
| 2026-05-05 20:31 | 46.95324 | 8.38071 | 30935 ft | 448 kts | 179° |
| 2026-05-05 20:32 | 46.89134 | 8.38913 | 30954 ft | 444 kts | 179° |
| 2026-05-05 20:32 | 46.82966 | 8.39745 | 30954 ft | 445 kts | 179° |
| 2026-05-05 20:33 | 46.76796 | 8.40579 | 30937 ft | 445 kts | 179° |
| 2026-05-05 20:33 | 46.70642 | 8.41410 | 30897 ft | 441 kts | 179° |
| 2026-05-05 20:33 | 46.67550 | 8.41825 | 30027 ft | 446 kts | 179° |
| 2026-05-05 20:34 | 46.64467 | 8.42239 | 29221 ft | 442 kts | 179° |
| 2026-05-05 20:34 | 46.61470 | 8.42644 | 28646 ft | 435 kts | 179° |
| 2026-05-05 20:34 | 46.58472 | 8.43050 | 28062 ft | 429 kts | 179° |
| 2026-05-05 20:34 | 46.55509 | 8.43448 | 27484 ft | 424 kts | 179° |
| 2026-05-05 20:35 | 46.52592 | 8.43838 | 26949 ft | 419 kts | 179° |
| 2026-05-05 20:35 | 46.49699 | 8.44224 | 26394 ft | 415 kts | 179° |
| 2026-05-05 20:35 | 46.46831 | 8.44607 | 26079 ft | 411 kts | 179° |
| 2026-05-05 20:35 | 46.43961 | 8.44986 | 25985 ft | 415 kts | 179° |
| 2026-05-05 20:36 | 46.41128 | 8.45361 | 25996 ft | 411 kts | 179° |
| 2026-05-05 20:36 | 46.38277 | 8.45741 | 25957 ft | 408 kts | 179° |
| 2026-05-05 20:36 | 46.35473 | 8.46116 | 25956 ft | 406 kts | 179° |
| 2026-05-05 20:36 | 46.32659 | 8.46493 | 25972 ft | 406 kts | 179° |
| 2026-05-05 20:37 | 46.29842 | 8.46864 | 25966 ft | 407 kts | 179° |
| 2026-05-05 20:37 | 46.27978 | 8.47109 | 25974 ft | 406 kts | 179° |
| 2026-05-05 20:37 | 46.24203 | 8.47637 | 25982 ft | 407 kts | 178° |
| 2026-05-05 20:37 | 46.21392 | 8.48060 | 26010 ft | 407 kts | 178° |
| 2026-05-05 20:38 | 46.18562 | 8.48487 | 25969 ft | 408 kts | 178° |
| 2026-05-05 20:38 | 46.15738 | 8.48909 | 26003 ft | 408 kts | 178° |
| 2026-05-05 20:38 | 46.12899 | 8.49384 | 25994 ft | 412 kts | 175° |
| 2026-05-05 20:38 | 46.10118 | 8.50243 | 26000 ft | 415 kts | 169° |
| 2026-05-05 20:39 | 46.07340 | 8.51487 | 25984 ft | 419 kts | 165° |
| 2026-05-05 20:39 | 46.04616 | 8.52959 | 25995 ft | 412 kts | 164° |
| 2026-05-05 20:39 | 46.01980 | 8.54411 | 25906 ft | 398 kts | 164° |
| 2026-05-05 20:39 | 45.99433 | 8.55811 | 25864 ft | 384 kts | 164° |
| 2026-05-05 20:40 | 45.96971 | 8.57155 | 25774 ft | 371 kts | 165° |
| 2026-05-05 20:40 | 45.94618 | 8.58425 | 25551 ft | 365 kts | 165° |
| 2026-05-05 20:40 | 45.92232 | 8.59700 | 25179 ft | 366 kts | 165° |
| 2026-05-05 20:40 | 45.89834 | 8.60977 | 24728 ft | 367 kts | 166° |
| 2026-05-05 20:41 | 45.87376 | 8.61753 | 24191 ft | 362 kts | 181° |
| 2026-05-05 20:41 | 45.84884 | 8.61483 | 23755 ft | 359 kts | 194° |
| 2026-05-05 20:41 | 45.82515 | 8.60402 | 23414 ft | 355 kts | 205° |
| 2026-05-05 20:41 | 45.80412 | 8.58649 | 23085 ft | 352 kts | 217° |
| 2026-05-05 20:42 | 45.78651 | 8.56194 | 23045 ft | 348 kts | 230° |
| 2026-05-05 20:42 | 45.77411 | 8.53289 | 22978 ft | 344 kts | 244° |
| 2026-05-05 20:42 | 45.76731 | 8.50009 | 22975 ft | 336 kts | 257° |
| 2026-05-05 20:42 | 45.76649 | 8.46756 | 23001 ft | 328 kts | 270° |
| 2026-05-05 20:43 | 45.77099 | 8.43583 | 22972 ft | 322 kts | 283° |
| 2026-05-05 20:43 | 45.78038 | 8.40649 | 23005 ft | 330 kts | 295° |
| 2026-05-05 20:43 | 45.78906 | 8.38837 | 23008 ft | 336 kts | 301° |
| 2026-05-05 20:43 | 45.81068 | 8.35565 | 22976 ft | 342 kts | 316° |
| 2026-05-05 20:44 | 45.82413 | 8.34356 | 22984 ft | 347 kts | 332° |
| 2026-05-05 20:44 | 45.84686 | 8.33158 | 23030 ft | 349 kts | 335° |
| 2026-05-05 20:44 | 45.87104 | 8.32270 | 22797 ft | 372 kts | 353° |
| 2026-05-05 20:44 | 45.89754 | 8.32685 | 21913 ft | 399 kts | 18° |
| 2026-05-05 20:45 | 45.94010 | 8.37993 | 19965 ft | 423 kts | 67° |
| 2026-05-05 20:45 | 45.94794 | 8.42019 | 19334 ft | 416 kts | 88° |
| 2026-05-05 20:45 | 45.94713 | 8.46134 | 18731 ft | 410 kts | 103° |
| 2026-05-05 20:46 | 45.93824 | 8.49958 | 18129 ft | 400 kts | 123° |
| 2026-05-05 20:46 | 45.92118 | 8.52999 | 17565 ft | 386 kts | 146° |
| 2026-05-05 20:46 | 45.89794 | 8.54741 | 17051 ft | 373 kts | 168° |
| 2026-05-05 20:46 | 45.87272 | 8.55333 | 16536 ft | 363 kts | 177° |
| 2026-05-05 20:47 | 45.84758 | 8.55699 | 15946 ft | 364 kts | 177° |
| 2026-05-05 20:47 | 45.82265 | 8.55725 | 15291 ft | 356 kts | 189° |
| 2026-05-05 20:47 | 45.79793 | 8.55245 | 14667 ft | 358 kts | 189° |
| 2026-05-05 20:47 | 45.77314 | 8.55002 | 14165 ft | 357 kts | 183° |
| 2026-05-05 20:48 | 45.74868 | 8.55143 | 13723 ft | 356 kts | 177° |
| 2026-05-05 20:48 | 45.72424 | 8.55582 | 13431 ft | 348 kts | 174° |
| 2026-05-05 20:48 | 45.70092 | 8.56166 | 13333 ft | 334 kts | 172° |
| 2026-05-05 20:48 | 45.67850 | 8.56800 | 13241 ft | 322 kts | 171° |
| 2026-05-05 20:49 | 45.65704 | 8.57432 | 13146 ft | 309 kts | 171° |
| 2026-05-05 20:49 | 45.63635 | 8.58046 | 13042 ft | 297 kts | 171° |
| 2026-05-05 20:49 | 45.61647 | 8.58634 | 12947 ft | 285 kts | 171° |
| 2026-05-05 20:49 | 45.59743 | 8.59195 | 12796 ft | 275 kts | 171° |
| 2026-05-05 20:50 | 45.57892 | 8.59736 | 12588 ft | 267 kts | 173° |
| 2026-05-05 20:50 | 45.56080 | 8.59703 | 12129 ft | 260 kts | 198° |
| 2026-05-05 20:50 | 45.54478 | 8.58551 | 11698 ft | 259 kts | 220° |
| 2026-05-05 20:50 | 45.53288 | 8.56640 | 11302 ft | 258 kts | 239° |
| 2026-05-05 20:51 | 45.52683 | 8.54286 | 11011 ft | 259 kts | 261° |
| 2026-05-05 20:51 | 45.52773 | 8.51667 | 11007 ft | 270 kts | 283° |
| 2026-05-05 20:51 | 45.53596 | 8.49253 | 10994 ft | 274 kts | 307° |
| 2026-05-05 20:51 | 45.55029 | 8.47482 | 10992 ft | 276 kts | 329° |
| 2026-05-05 20:52 | 45.56850 | 8.46646 | 10994 ft | 275 kts | 347° |
| 2026-05-05 20:52 | 45.58749 | 8.46119 | 11007 ft | 280 kts | 346° |
| 2026-05-05 20:52 | 45.60643 | 8.45558 | 11010 ft | 284 kts | 346° |
| 2026-05-05 20:52 | 45.62592 | 8.44972 | 11001 ft | 284 kts | 346° |
| 2026-05-05 20:53 | 45.64529 | 8.44577 | 10972 ft | 279 kts | 3° |
| 2026-05-05 20:53 | 45.66388 | 8.45329 | 10998 ft | 281 kts | 30° |
| 2026-05-05 20:53 | 45.67868 | 8.47171 | 11005 ft | 285 kts | 56° |
| 2026-05-05 20:53 | 45.68709 | 8.49727 | 11002 ft | 286 kts | 81° |
| 2026-05-05 20:54 | 45.68730 | 8.52528 | 11005 ft | 282 kts | 107° |
| 2026-05-05 20:54 | 45.67940 | 8.54996 | 10997 ft | 273 kts | 133° |
| 2026-05-05 20:54 | 45.66549 | 8.56759 | 10999 ft | 264 kts | 152° |
| 2026-05-05 20:54 | 45.64881 | 8.57741 | 10993 ft | 259 kts | 168° |
| 2026-05-05 20:55 | 45.63108 | 8.58279 | 10997 ft | 260 kts | 171° |
| 2026-05-05 20:55 | 45.61333 | 8.58769 | 11002 ft | 261 kts | 171° |
| 2026-05-05 20:55 | 45.59544 | 8.59279 | 11002 ft | 263 kts | 171° |
| 2026-05-05 20:55 | 45.57739 | 8.59794 | 10998 ft | 262 kts | 174° |
| 2026-05-05 20:56 | 45.55965 | 8.59624 | 10995 ft | 256 kts | 201° |
| 2026-05-05 20:56 | 45.54447 | 8.58335 | 10999 ft | 255 kts | 224° |
| 2026-05-05 20:56 | 45.53410 | 8.56286 | 11003 ft | 257 kts | 246° |
| 2026-05-05 20:56 | 45.53016 | 8.53800 | 10991 ft | 261 kts | 269° |
| 2026-05-05 20:57 | 45.53393 | 8.51261 | 10993 ft | 266 kts | 294° |
| 2026-05-05 20:57 | 45.54516 | 8.49188 | 10994 ft | 272 kts | 319° |
| 2026-05-05 20:57 | 45.56182 | 8.47913 | 10989 ft | 276 kts | 344° |
| 2026-05-05 20:57 | 45.58063 | 8.47368 | 11003 ft | 276 kts | 347° |
| 2026-05-05 20:58 | 45.59960 | 8.46817 | 11001 ft | 279 kts | 346° |
| 2026-05-05 20:58 | 45.61885 | 8.46241 | 10842 ft | 288 kts | 346° |
| 2026-05-05 20:58 | 45.63831 | 8.45697 | 10584 ft | 285 kts | 353° |
| 2026-05-05 20:58 | 45.65767 | 8.46056 | 10321 ft | 282 kts | 25° |
| 2026-05-05 20:59 | 45.67303 | 8.47689 | 10082 ft | 276 kts | 53° |
| 2026-05-05 20:59 | 45.68152 | 8.50093 | 9852 ft | 270 kts | 80° |
| 2026-05-05 20:59 | 45.68206 | 8.52742 | 9592 ft | 265 kts | 105° |
| 2026-05-05 20:59 | 45.67493 | 8.55111 | 9338 ft | 259 kts | 130° |
| 2026-05-05 21:00 | 45.66219 | 8.56844 | 9185 ft | 252 kts | 149° |
| 2026-05-05 21:00 | 45.64618 | 8.57778 | 9074 ft | 248 kts | 170° |
| 2026-05-05 21:00 | 45.62899 | 8.58252 | 9012 ft | 255 kts | 170° |
| 2026-05-05 21:00 | 45.61154 | 8.58768 | 9011 ft | 257 kts | 169° |
| 2026-05-05 21:01 | 45.59393 | 8.59295 | 8990 ft | 256 kts | 169° |
| 2026-05-05 21:01 | 45.57663 | 8.59797 | 8979 ft | 251 kts | 174° |
| 2026-05-05 21:01 | 45.55984 | 8.59572 | 8996 ft | 248 kts | 202° |
| 2026-05-05 21:01 | 45.54541 | 8.58203 | 9012 ft | 254 kts | 227° |
| 2026-05-05 21:02 | 45.53617 | 8.56032 | 8998 ft | 259 kts | 251° |
| 2026-05-05 21:02 | 45.53441 | 8.53498 | 8983 ft | 261 kts | 278° |
| 2026-05-05 21:02 | 45.54118 | 8.51103 | 8986 ft | 264 kts | 306° |
| 2026-05-05 21:02 | 45.55499 | 8.49434 | 8994 ft | 266 kts | 332° |
| 2026-05-05 21:03 | 45.57283 | 8.48687 | 8997 ft | 265 kts | 348° |
| 2026-05-05 21:03 | 45.59092 | 8.48170 | 9013 ft | 272 kts | 347° |
| 2026-05-05 21:03 | 45.60961 | 8.47611 | 8997 ft | 274 kts | 347° |
| 2026-05-05 21:03 | 45.62826 | 8.47050 | 8988 ft | 273 kts | 347° |
| 2026-05-05 21:04 | 45.64690 | 8.46844 | 8975 ft | 267 kts | 11° |
| 2026-05-05 21:04 | 45.66367 | 8.47925 | 9008 ft | 269 kts | 41° |
| 2026-05-05 21:04 | 45.67500 | 8.50052 | 9004 ft | 272 kts | 70° |
| 2026-05-05 21:04 | 45.67823 | 8.52686 | 8995 ft | 269 kts | 98° |
| 2026-05-05 21:05 | 45.67268 | 8.55154 | 8983 ft | 262 kts | 126° |
| 2026-05-05 21:05 | 45.65996 | 8.56943 | 8997 ft | 256 kts | 151° |
| 2026-05-05 21:05 | 45.64384 | 8.57844 | 8986 ft | 251 kts | 170° |
| 2026-05-05 21:05 | 45.62657 | 8.58335 | 8997 ft | 251 kts | 169° |
| 2026-05-05 21:06 | 45.60929 | 8.58844 | 8998 ft | 254 kts | 169° |
| 2026-05-05 21:06 | 45.59223 | 8.59352 | 9003 ft | 255 kts | 169° |
| 2026-05-05 21:06 | 45.57474 | 8.59834 | 8988 ft | 253 kts | 176° |
| 2026-05-05 21:06 | 45.55765 | 8.59463 | 8994 ft | 250 kts | 205° |
| 2026-05-05 21:07 | 45.54383 | 8.57977 | 8997 ft | 251 kts | 231° |
| 2026-05-05 21:07 | 45.53569 | 8.55763 | 8999 ft | 255 kts | 255° |
| 2026-05-05 21:07 | 45.53494 | 8.53231 | 8995 ft | 260 kts | 281° |
| 2026-05-05 21:07 | 45.54245 | 8.50886 | 8993 ft | 265 kts | 308° |
| 2026-05-05 21:08 | 45.55702 | 8.49276 | 8997 ft | 269 kts | 336° |
| 2026-05-05 21:08 | 45.57505 | 8.48609 | 9006 ft | 267 kts | 348° |
| 2026-05-05 21:08 | 45.59336 | 8.48084 | 9011 ft | 270 kts | 347° |
| 2026-05-05 21:08 | 45.61169 | 8.47537 | 9000 ft | 273 kts | 347° |
| 2026-05-05 21:09 | 45.63036 | 8.46976 | 9005 ft | 275 kts | 347° |
| 2026-05-05 21:09 | 45.64926 | 8.46883 | 8981 ft | 273 kts | 14° |
| 2026-05-05 21:09 | 45.66585 | 8.48127 | 9002 ft | 271 kts | 45° |
| 2026-05-05 21:09 | 45.67607 | 8.50356 | 9003 ft | 268 kts | 75° |
| 2026-05-05 21:10 | 45.67790 | 8.52974 | 9001 ft | 264 kts | 102° |
| 2026-05-05 21:10 | 45.67133 | 8.55373 | 9001 ft | 260 kts | 129° |
| 2026-05-05 21:10 | 45.65835 | 8.57075 | 9008 ft | 256 kts | 152° |
| 2026-05-05 21:10 | 45.64172 | 8.57912 | 8990 ft | 252 kts | 171° |
| 2026-05-05 21:11 | 45.62443 | 8.58395 | 9008 ft | 254 kts | 169° |
| 2026-05-05 21:11 | 45.60697 | 8.58911 | 9011 ft | 257 kts | 169° |
| 2026-05-05 21:11 | 45.58940 | 8.59427 | 8998 ft | 259 kts | 170° |
| 2026-05-05 21:11 | 45.57174 | 8.59922 | 8972 ft | 256 kts | 170° |
| 2026-05-05 21:12 | 45.55434 | 8.60404 | 8807 ft | 253 kts | 171° |
| 2026-05-05 21:12 | 45.53715 | 8.60879 | 8534 ft | 250 kts | 171° |
| 2026-05-05 21:12 | 45.52008 | 8.61352 | 8133 ft | 249 kts | 170° |
| 2026-05-05 21:12 | 45.50309 | 8.61823 | 7741 ft | 249 kts | 170° |
| 2026-05-05 21:13 | 45.48650 | 8.62284 | 7698 ft | 238 kts | 170° |
| 2026-05-05 21:13 | 45.47020 | 8.62736 | 7704 ft | 245 kts | 170° |
| 2026-05-05 21:13 | 45.45318 | 8.63208 | 7728 ft | 251 kts | 170° |
| 2026-05-05 21:13 | 45.43576 | 8.63693 | 7629 ft | 254 kts | 170° |
| 2026-05-05 21:14 | 45.41851 | 8.64172 | 7551 ft | 250 kts | 170° |
| 2026-05-05 21:14 | 45.40180 | 8.64636 | 7439 ft | 248 kts | 170° |
| 2026-05-05 21:14 | 45.38464 | 8.65111 | 7277 ft | 247 kts | 170° |
| 2026-05-05 21:14 | 45.36796 | 8.65573 | 7117 ft | 247 kts | 170° |
| 2026-05-05 21:15 | 45.35106 | 8.66041 | 6986 ft | 245 kts | 170° |
| 2026-05-05 21:15 | 45.33447 | 8.66500 | 6943 ft | 239 kts | 170° |
| 2026-05-05 21:15 | 45.31827 | 8.66947 | 6893 ft | 234 kts | 170° |
| 2026-05-05 21:15 | 45.30247 | 8.67383 | 6798 ft | 229 kts | 170° |
| 2026-05-05 21:16 | 45.28694 | 8.67810 | 6514 ft | 227 kts | 170° |
| 2026-05-05 21:16 | 45.27156 | 8.68233 | 6100 ft | 227 kts | 170° |
| 2026-05-05 21:16 | 45.25623 | 8.68655 | 6010 ft | 223 kts | 170° |
| 2026-05-05 21:16 | 45.24083 | 8.69077 | 6018 ft | 231 kts | 170° |
| 2026-05-05 21:17 | 45.22481 | 8.69516 | 6016 ft | 236 kts | 170° |
| 2026-05-05 21:17 | 45.20869 | 8.69958 | 6004 ft | 235 kts | 170° |
| 2026-05-05 21:17 | 45.19266 | 8.70398 | 5964 ft | 230 kts | 170° |
| 2026-05-05 21:17 | 45.17717 | 8.70823 | 5953 ft | 222 kts | 170° |
| 2026-05-05 21:18 | 45.16204 | 8.71239 | 5962 ft | 221 kts | 170° |
| 2026-05-05 21:18 | 45.14714 | 8.71648 | 5970 ft | 221 kts | 170° |
| 2026-05-05 21:18 | 45.13200 | 8.72063 | 5974 ft | 222 kts | 170° |
| 2026-05-05 21:18 | 45.11677 | 8.72481 | 5981 ft | 222 kts | 170° |
| 2026-05-05 21:19 | 45.10157 | 8.72898 | 5988 ft | 223 kts | 170° |
| 2026-05-05 21:19 | 45.08622 | 8.73317 | 5978 ft | 224 kts | 170° |
| 2026-05-05 21:19 | 45.07071 | 8.73741 | 5988 ft | 230 kts | 170° |
| 2026-05-05 21:19 | 45.05485 | 8.74174 | 5985 ft | 234 kts | 169° |
| 2026-05-05 21:20 | 45.03975 | 8.74981 | 5716 ft | 235 kts | 143° |
| 2026-05-05 21:20 | 45.02967 | 8.76789 | 5366 ft | 237 kts | 112° |
| 2026-05-05 21:20 | 45.02792 | 8.79082 | 5013 ft | 241 kts | 78° |
| 2026-05-05 21:20 | 45.03555 | 8.81225 | 5016 ft | 249 kts | 48° |
| 2026-05-05 21:21 | 45.04946 | 8.82621 | 4990 ft | 249 kts | 27° |
| 2026-05-05 21:21 | 45.06527 | 8.83655 | 4947 ft | 246 kts | 24° |
| 2026-05-05 21:21 | 45.08098 | 8.84621 | 4887 ft | 246 kts | 24° |
| 2026-05-05 21:21 | 45.09144 | 8.85262 | 4783 ft | 248 kts | 24° |
| 2026-05-05 21:22 | 45.10732 | 8.86234 | 4655 ft | 249 kts | 23° |
| 2026-05-05 21:22 | 45.12843 | 8.87520 | 4562 ft | 248 kts | 23° |
| 2026-05-05 21:22 | 45.14467 | 8.88257 | 4410 ft | 245 kts | 1° |
| 2026-05-05 21:22 | 45.15592 | 8.88187 | 4260 ft | 243 kts | 355° |
| 2026-05-05 21:23 | 45.17275 | 8.88234 | 4073 ft | 237 kts | 356° |
| 2026-05-05 21:23 | 45.18868 | 8.87779 | 4002 ft | 232 kts | 342° |
| 2026-05-05 21:23 | 45.20889 | 8.86879 | 3974 ft | 228 kts | 342° |
| 2026-05-05 21:23 | 45.21893 | 8.86444 | 4000 ft | 227 kts | 342° |
| 2026-05-05 21:24 | 45.23412 | 8.85816 | 3988 ft | 229 kts | 343° |
| 2026-05-05 21:24 | 45.24843 | 8.85253 | 4006 ft | 230 kts | 345° |
| 2026-05-05 21:24 | 45.26275 | 8.84713 | 4003 ft | 230 kts | 345° |
| 2026-05-05 21:24 | 45.27692 | 8.84193 | 4004 ft | 231 kts | 345° |
| 2026-05-05 21:25 | 45.28648 | 8.83849 | 4003 ft | 230 kts | 345° |
| 2026-05-05 21:25 | 45.28897 | 8.83760 | 4003 ft | 231 kts | 345° |
| 2026-05-05 21:25 | 45.29355 | 8.83597 | 4000 ft | 231 kts | 346° |
| 2026-05-05 21:25 | 45.30824 | 8.83078 | 3996 ft | 230 kts | 346° |
| 2026-05-05 21:26 | 45.31979 | 8.82673 | 3997 ft | 229 kts | 345° |
| 2026-05-05 21:26 | 45.33488 | 8.82139 | 3996 ft | 225 kts | 345° |
| 2026-05-05 21:26 | 45.34955 | 8.81629 | 3970 ft | 208 kts | 345° |
| 2026-05-05 21:26 | 45.36316 | 8.81147 | 4011 ft | 198 kts | 343° |
| 2026-05-05 21:27 | 45.37643 | 8.80561 | 3999 ft | 200 kts | 342° |
| 2026-05-05 21:27 | 45.38978 | 8.80056 | 3989 ft | 198 kts | 346° |
| 2026-05-05 21:27 | 45.40315 | 8.79639 | 3990 ft | 196 kts | 347° |
| 2026-05-05 21:27 | 45.41622 | 8.79265 | 3984 ft | 192 kts | 348° |
| 2026-05-05 21:28 | 45.42911 | 8.78906 | 3988 ft | 186 kts | 348° |
| 2026-05-05 21:28 | 45.44179 | 8.78556 | 3989 ft | 185 kts | 348° |
| 2026-05-05 21:28 | 45.45450 | 8.78206 | 3975 ft | 188 kts | 348° |
| 2026-05-05 21:28 | 45.46760 | 8.77845 | 3702 ft | 191 kts | 348° |
| 2026-05-05 21:29 | 45.48034 | 8.77494 | 3449 ft | 181 kts | 349° |
| 2026-05-05 21:29 | 45.49242 | 8.77160 | 3209 ft | 171 kts | 349° |
| 2026-05-05 21:29 | 45.50383 | 8.76845 | 3005 ft | 165 kts | 349° |
| 2026-05-05 21:29 | 45.51509 | 8.76535 | 2798 ft | 165 kts | 349° |
| 2026-05-05 21:30 | 45.52636 | 8.76224 | 2566 ft | 165 kts | 349° |
| 2026-05-05 21:30 | 45.53750 | 8.75917 | 2338 ft | 163 kts | 349° |
| 2026-05-05 21:30 | 45.54841 | 8.75615 | 2123 ft | 162 kts | 350° |
| 2026-05-05 21:30 | 45.55949 | 8.75310 | 1908 ft | 162 kts | 349° |
| 2026-05-05 21:31 | 45.57055 | 8.75009 | 1683 ft | 160 kts | 350° |
| 2026-05-05 21:31 | 45.58138 | 8.74709 | 1452 ft | 157 kts | 350° |
| 2026-05-05 21:31 | 45.59193 | 8.74416 | 1230 ft | 152 kts | 349° |
| 2026-05-05 21:31 | 45.60217 | 8.74131 | 1033 ft | 150 kts | 349° |
| 2026-05-05 21:32 | 45.61247 | 8.73835 | 842 ft | 154 kts | 348° |
| 2026-05-05 21:32 | 45.62281 | 8.73554 | 749 ft | 144 kts | 349° |
| 2026-05-05 21:32 | 45.63153 | 8.73316 | 745 ft | 109 kts | 348° |
| 2026-05-05 21:32 | 45.63738 | 8.73151 | 751 ft | 66 kts | 349° |
| 2026-05-05 21:33 | 45.64064 | 8.73061 | 748 ft | 38 kts | 349° |
| 2026-05-05 21:33 | 45.64288 | 8.72937 | 751 ft | 32 kts | 309° |
| 2026-05-05 21:33 | 45.64364 | 8.72786 | 752 ft | 6 kts | 303° |
| 2026-05-05 21:36 | 45.64374 | 8.72766 | 751 ft | 5 kts | 303° |
| 2026-05-05 21:36 | 45.64387 | 8.72717 | 755 ft | 5 kts | 271° |
| 2026-05-05 21:36 | 45.64354 | 8.72697 | 753 ft | 6 kts | 188° |
| 2026-05-05 21:36 | 45.64286 | 8.72695 | 754 ft | 12 kts | 172° |
| 2026-05-05 21:37 | 45.64202 | 8.72718 | 752 ft | 12 kts | 169° |
| 2026-05-05 21:37 | 45.64117 | 8.72741 | 753 ft | 12 kts | 169° |
| 2026-05-05 21:37 | 45.64032 | 8.72763 | 752 ft | 12 kts | 169° |
| 2026-05-05 21:37 | 45.63947 | 8.72781 | 754 ft | 12 kts | 186° |
| 2026-05-05 21:38 | 45.63928 | 8.72682 | 752 ft | 13 kts | 295° |
| 2026-05-05 21:38 | 45.63959 | 8.72567 | 754 ft | 13 kts | 266° |
| 2026-05-05 21:38 | 45.63941 | 8.72443 | 754 ft | 13 kts | 259° |
| 2026-05-05 21:38 | 45.63925 | 8.72321 | 754 ft | 13 kts | 259° |
| 2026-05-05 21:39 | 45.63916 | 8.72192 | 752 ft | 14 kts | 266° |
| 2026-05-05 21:39 | 45.63910 | 8.72037 | 747 ft | 16 kts | 267° |
| 2026-05-05 21:39 | 45.63899 | 8.71917 | 752 ft | 10 kts | 258° |
| 2026-05-05 21:39 | 45.63894 | 8.71886 | 755 ft | 0 kts | 258° |
| 2026-05-05 21:40 | 45.63894 | 8.71883 | 755 ft | 2 kts | 258° |
| 2026-05-05 21:40 | 45.63863 | 8.71819 | 753 ft | 11 kts | 208° |
| 2026-05-05 21:41 | 45.63787 | 8.71828 | 752 ft | 11 kts | 170° |
| 2026-05-05 21:41 | 45.63710 | 8.71848 | 753 ft | 11 kts | 169° |
| 2026-05-05 21:41 | 45.63635 | 8.71868 | 755 ft | 11 kts | 169° |
| 2026-05-05 21:41 | 45.63558 | 8.71889 | 751 ft | 11 kts | 169° |
| 2026-05-05 21:42 | 45.63481 | 8.71909 | 753 ft | 11 kts | 169° |
| 2026-05-05 21:42 | 45.63405 | 8.71933 | 754 ft | 11 kts | 167° |
| 2026-05-05 21:42 | 45.63329 | 8.71955 | 751 ft | 11 kts | 169° |
| 2026-05-05 21:42 | 45.63253 | 8.71976 | 753 ft | 11 kts | 169° |
| 2026-05-05 21:43 | 45.63177 | 8.71997 | 752 ft | 11 kts | 169° |
| 2026-05-05 21:43 | 45.63100 | 8.72018 | 755 ft | 11 kts | 169° |
| 2026-05-05 21:43 | 45.63024 | 8.72039 | 752 ft | 11 kts | 169° |
| 2026-05-05 21:43 | 45.62947 | 8.72060 | 751 ft | 11 kts | 169° |
| 2026-05-05 21:44 | 45.62871 | 8.72081 | 756 ft | 11 kts | 169° |
| 2026-05-05 21:44 | 45.62794 | 8.72102 | 752 ft | 11 kts | 169° |
| 2026-05-05 21:44 | 45.62718 | 8.72123 | 753 ft | 11 kts | 169° |
| 2026-05-05 21:44 | 45.62641 | 8.72144 | 755 ft | 11 kts | 169° |
| 2026-05-05 21:45 | 45.62565 | 8.72164 | 751 ft | 11 kts | 169° |
| 2026-05-05 21:45 | 45.62488 | 8.72185 | 752 ft | 11 kts | 169° |
| 2026-05-05 21:45 | 45.62413 | 8.72206 | 754 ft | 11 kts | 169° |
| 2026-05-05 21:45 | 45.62337 | 8.72227 | 753 ft | 11 kts | 169° |
| 2026-05-05 21:46 | 45.62260 | 8.72248 | 752 ft | 11 kts | 169° |
| 2026-05-05 21:46 | 45.62200 | 8.72192 | 754 ft | 11 kts | 230° |
| 2026-05-05 21:46 | 45.62126 | 8.72178 | 753 ft | 11 kts | 172° |
| 2026-05-05 21:46 | 45.62049 | 8.72197 | 755 ft | 11 kts | 169° |
| 2026-05-05 21:47 | 45.61973 | 8.72217 | 753 ft | 11 kts | 169° |
| 2026-05-05 21:47 | 45.61897 | 8.72238 | 755 ft | 11 kts | 169° |
| 2026-05-05 21:47 | 45.61820 | 8.72258 | 753 ft | 11 kts | 169° |
| 2026-05-05 21:47 | 45.61744 | 8.72279 | 754 ft | 11 kts | 169° |
| 2026-05-05 21:48 | 45.61667 | 8.72301 | 755 ft | 11 kts | 169° |
| 2026-05-05 21:48 | 45.61591 | 8.72322 | 753 ft | 7 kts | 169° |
| 2026-05-05 21:48 | 45.61573 | 8.72327 | 755 ft | 2 kts | 169° |
| 2026-05-05 21:48 | 45.61534 | 8.72338 | 754 ft | 12 kts | 169° |
| 2026-05-05 21:49 | 45.61444 | 8.72363 | 753 ft | 13 kts | 173° |
| 2026-05-05 21:49 | 45.61388 | 8.72276 | 753 ft | 13 kts | 253° |
| 2026-05-05 21:49 | 45.61379 | 8.72200 | 755 ft | 7 kts | 265° |
| 2026-05-05 21:49 | 45.61371 | 8.72129 | 753 ft | 7 kts | 259° |
| 2026-05-05 21:50 | 45.61362 | 8.72068 | 756 ft | 3 kts | 259° |
| 2026-05-05 21:50 | 45.61361 | 8.72055 | 754 ft | 0 kts | 258° |